createdAt,value
2023-07-29T00:24:28.182Z,1.49
2023-07-29T01:14:44.766Z,1.70
2023-07-29T01:44:47.407Z,1.46
2023-07-29T02:14:49.941Z,1.35
2023-07-29T02:44:52.385Z,1.31
2023-07-29T03:14:54.814Z,1.30
2023-07-29T03:44:57.296Z,1.39
2023-07-29T04:14:59.893Z,1.49
2023-07-29T05:09:46.667Z,2.69
2023-07-29T05:39:49.447Z,2.48
2023-07-29T06:09:52.014Z,2.27
2023-07-29T06:39:54.563Z,1.97
2023-07-29T07:09:58.575Z,1.45
2023-07-29T07:40:00.902Z,1.19
2023-07-29T08:10:03.471Z,1.54
2023-07-29T08:40:03.545Z,1.32
2023-07-29T09:10:05.917Z,1.17
2023-07-29T09:40:09.477Z,1.04
2023-07-29T10:10:12.176Z,0.88
2023-07-29T10:40:15.036Z,1.01
2023-07-29T11:10:17.324Z,1.36
2023-07-29T11:40:19.995Z,1.16
2023-07-29T12:10:22.861Z,1.38
2023-07-29T12:40:25.699Z,1.52
2023-07-29T13:10:28.510Z,1.58
2023-07-29T13:40:31.281Z,1.87
2023-07-29T14:10:34.046Z,2.07
2023-07-29T14:40:36.741Z,1.28
2023-07-29T15:10:40.066Z,1.11
2023-07-29T15:40:42.811Z,1.08
2023-07-29T16:10:45.671Z,0.96
2023-07-29T16:41:06.209Z,0.94
2023-07-29T17:10:51.721Z,1.01
2023-07-29T17:40:54.398Z,1.11
2023-07-29T18:10:57.063Z,1.03
2023-07-29T19:07:18.328Z,1.42
2023-07-29T19:37:20.922Z,1.38
2023-07-29T20:07:23.705Z,1.42
2023-07-29T20:37:26.360Z,1.60
2023-07-29T21:07:29.062Z,1.83
2023-07-29T21:37:36.543Z,3.09
2023-07-29T22:07:34.431Z,1.91
2023-07-29T22:37:37.030Z,1.77
2023-07-29T23:27:53.954Z,4.10
2023-07-29T23:57:56.407Z,3.56
